createdAt,value
2022-10-15T00:00:36.767Z,11.91
2022-10-15T00:03:03.271Z,11.88
2022-10-15T00:05:29.836Z,11.68
2022-10-15T00:07:56.341Z,11.89
2022-10-15T00:10:22.789Z,11.83
2022-10-15T00:12:49.725Z,11.79
2022-10-15T00:15:16.416Z,11.91
2022-10-15T00:17:42.865Z,11.77
2022-10-15T00:20:10.690Z,11.96
2022-10-15T00:22:37.515Z,11.97
2022-10-15T00:25:05.104Z,11.91
2022-10-15T00:27:31.657Z,12.08
2022-10-15T00:29:58.597Z,11.91
2022-10-15T00:32:25.544Z,12.07
2022-10-15T00:34:52.204Z,11.74
2022-10-15T00:37:18.861Z,12.10
2022-10-15T00:39:45.402Z,12.07
2022-10-15T00:42:11.764Z,12.11
2022-10-15T00:44:58.833Z,11.96
2022-10-15T00:47:41.716Z,12.22
2022-10-15T00:50:24.664Z,12.18
2022-10-15T00:53:02.302Z,12.24
2022-10-15T00:55:31.459Z,12.31
2022-10-15T00:58:06.251Z,12.32
2022-10-15T01:00:33.991Z,12.24
2022-10-15T01:03:00.619Z,12.21
2022-10-15T01:05:27.520Z,12.19
2022-10-15T01:07:53.940Z,12.17
2022-10-15T01:10:21.244Z,12.18
2022-10-15T01:13:07.498Z,12.18
2022-10-15T01:15:50.939Z,11.96
2022-10-15T01:18:26.754Z,12.17
2022-10-15T01:21:07.057Z,12.15
2022-10-15T01:23:57.747Z,12.19
2022-10-15T01:26:52.153Z,12.20
2022-10-15T01:29:27.413Z,12.28
2022-10-15T01:32:21.056Z,12.22
2022-10-15T01:34:56.489Z,12.19
2022-10-15T01:37:46.154Z,12.19
2022-10-15T01:40:29.518Z,12.16
2022-10-15T01:43:03.183Z,12.06
2022-10-15T01:45:36.778Z,12.10
2022-10-15T01:48:11.795Z,12.06
2022-10-15T01:50:43.681Z,11.97
2022-10-15T01:53:11.498Z,11.98
2022-10-15T01:55:43.095Z,11.72
2022-10-15T01:58:12.862Z,11.94
2022-10-15T02:00:42.954Z,11.88
2022-10-15T02:03:09.729Z,11.88
2022-10-15T02:05:43.594Z,11.84
2022-10-15T02:08:25.809Z,11.89
2022-10-15T02:11:10.717Z,11.82
2022-10-15T02:13:51.964Z,11.77
2022-10-15T02:16:18.354Z,11.78
2022-10-15T02:18:59.738Z,11.70
2022-10-15T02:22:05.731Z,11.68
2022-10-15T02:24:40.351Z,11.65
2022-10-15T02:27:09.096Z,11.56
2022-10-15T02:29:38.050Z,11.37
2022-10-15T02:32:07.594Z,11.53
2022-10-15T02:34:35.724Z,11.73
2022-10-15T02:37:04.776Z,11.72
2022-10-15T02:39:31.469Z,11.61
2022-10-15T02:41:58.226Z,11.60
2022-10-15T02:44:24.797Z,11.50
2022-10-15T02:46:51.267Z,11.52
2022-10-15T02:49:17.666Z,11.54
2022-10-15T02:51:44.143Z,11.43
2022-10-15T02:54:10.572Z,11.57
2022-10-15T02:56:36.984Z,11.48
2022-10-15T02:59:03.380Z,11.38
2022-10-15T03:01:29.925Z,11.35
2022-10-15T03:03:56.406Z,11.47
2022-10-15T03:06:22.838Z,11.24
2022-10-15T03:08:49.277Z,11.20
2022-10-15T03:11:15.841Z,11.41
2022-10-15T03:13:42.449Z,11.35
2022-10-15T03:16:10.573Z,11.40
2022-10-15T03:18:40.516Z,11.32
2022-10-15T03:21:08.025Z,11.32
2022-10-15T03:23:34.628Z,11.32
2022-10-15T03:26:01.177Z,11.30
2022-10-15T03:28:27.720Z,11.11
2022-10-15T03:30:54.251Z,11.23
2022-10-15T03:33:23.118Z,11.30
2022-10-15T03:35:51.920Z,11.21
2022-10-15T03:38:18.457Z,11.17
2022-10-15T03:40:47.771Z,11.02
2022-10-15T03:43:14.254Z,11.20
2022-10-15T03:45:40.723Z,10.99
2022-10-15T03:48:07.246Z,11.18
2022-10-15T03:50:34.013Z,11.18
2022-10-15T03:53:03.585Z,11.04
2022-10-15T03:55:30.026Z,11.16
2022-10-15T03:57:56.455Z,11.07
2022-10-15T04:00:22.989Z,11.22
2022-10-15T04:02:49.428Z,11.10
2022-10-15T04:05:15.877Z,11.26
2022-10-15T04:07:42.298Z,11.21
2022-10-15T04:10:09.658Z,11.30
2022-10-15T04:12:36.159Z,11.39
2022-10-15T04:15:03.787Z,11.37
2022-10-15T04:17:30.201Z,11.40
2022-10-15T04:19:56.688Z,11.41
2022-10-15T04:22:23.429Z,11.37
2022-10-15T04:24:50.155Z,11.14
2022-10-15T04:27:16.608Z,11.35
2022-10-15T04:29:43.064Z,11.20
2022-10-15T04:32:16.146Z,11.38
2022-10-15T04:34:42.750Z,11.36
2022-10-15T04:37:09.585Z,11.34
2022-10-15T04:39:36.026Z,11.14
2022-10-15T04:42:02.450Z,11.35
2022-10-15T04:44:28.882Z,11.35
2022-10-15T04:46:55.386Z,11.35
2022-10-15T04:49:21.788Z,11.38
2022-10-15T04:51:48.597Z,11.36
2022-10-15T04:54:15.221Z,11.34
2022-10-15T04:56:41.669Z,11.35
2022-10-15T04:59:09.085Z,11.41
2022-10-15T05:01:35.787Z,11.40
2022-10-15T05:04:02.216Z,11.29
2022-10-15T05:06:28.724Z,11.46
2022-10-15T05:08:55.207Z,11.52
2022-10-15T05:11:26.669Z,11.59
2022-10-15T05:13:55.602Z,11.45
2022-10-15T05:16:27.658Z,11.55
2022-10-15T05:19:02.857Z,11.64
2022-10-15T05:21:29.779Z,11.57
2022-10-15T05:23:56.437Z,11.58
2022-10-15T05:26:25.272Z,11.54
2022-10-15T05:28:53.097Z,11.59
2022-10-15T05:31:24.343Z,11.34
2022-10-15T05:33:52.382Z,11.45
2022-10-15T05:36:29.490Z,11.52
2022-10-15T05:38:59.249Z,11.43
2022-10-15T05:41:26.737Z,11.59
2022-10-15T05:43:55.015Z,11.45
2022-10-15T05:46:21.648Z,11.46
2022-10-15T05:48:52.958Z,11.70
2022-10-15T05:51:19.855Z,11.77
2022-10-15T05:53:46.424Z,11.78
2022-10-15T05:56:14.017Z,11.78
2022-10-15T05:58:40.838Z,11.81
2022-10-15T06:01:10.635Z,11.60
2022-10-15T06:03:37.999Z,11.67
2022-10-15T06:06:05.412Z,11.89
2022-10-15T06:08:32.112Z,11.89
2022-10-15T06:11:08.365Z,11.95
2022-10-15T06:13:39.214Z,11.99
2022-10-15T06:16:06.049Z,11.97
2022-10-15T06:18:32.810Z,11.97
2022-10-15T06:20:59.467Z,12.01
2022-10-15T06:23:26.104Z,11.99
2022-10-15T06:25:52.746Z,12.02
2022-10-15T06:28:19.354Z,11.87
2022-10-15T06:30:45.905Z,11.91
2022-10-15T06:35:44.176Z,11.91
2022-10-15T06:38:10.807Z,12.11
2022-10-15T06:40:37.558Z,12.17
2022-10-15T06:43:09.476Z,12.01
2022-10-15T06:45:41.174Z,11.96
2022-10-15T06:48:07.597Z,12.26
2022-10-15T06:50:35.560Z,12.14
2022-10-15T06:53:02.167Z,12.30
2022-10-15T06:55:28.840Z,12.37
2022-10-15T06:57:56.389Z,12.25
2022-10-15T07:00:23.529Z,12.14
2022-10-15T07:02:50.814Z,12.36
2022-10-15T07:05:20.752Z,12.41
2022-10-15T07:07:54.870Z,12.53
2022-10-15T07:10:22.319Z,12.40
2022-10-15T07:12:48.829Z,12.58
2022-10-15T07:15:15.639Z,12.56
2022-10-15T07:17:49.546Z,12.63
2022-10-15T07:20:20.259Z,12.72
2022-10-15T07:22:50.893Z,12.70
2022-10-15T07:25:17.625Z,12.68
2022-10-15T07:27:44.015Z,12.84
2022-10-15T07:30:10.830Z,12.81
2022-10-15T07:32:37.277Z,12.82
2022-10-15T07:35:04.012Z,12.81
2022-10-15T07:37:30.552Z,13.01
2022-10-15T07:39:57.060Z,13.21
2022-10-15T07:42:23.502Z,13.44
2022-10-15T07:44:49.889Z,13.53
2022-10-15T07:47:16.326Z,13.32
2022-10-15T07:49:43.091Z,13.25
2022-10-15T07:52:10.231Z,13.14
2022-10-15T07:54:36.928Z,13.08
2022-10-15T07:57:03.382Z,13.03
2022-10-15T07:59:29.786Z,13.08
2022-10-15T08:01:56.198Z,12.90
2022-10-15T08:04:22.677Z,13.12
2022-10-15T08:06:49.103Z,13.15
2022-10-15T08:09:16.057Z,12.99
2022-10-15T08:11:42.659Z,13.23
2022-10-15T08:14:09.526Z,13.35
2022-10-15T08:16:35.967Z,13.51
2022-10-15T08:19:02.630Z,13.56
2022-10-15T08:21:29.066Z,13.53
2022-10-15T08:23:55.678Z,13.65
2022-10-15T08:26:22.146Z,13.66
2022-10-15T08:28:48.776Z,13.37
2022-10-15T08:31:15.267Z,13.56
2022-10-15T08:33:41.705Z,13.57
2022-10-15T08:36:08.958Z,13.44
2022-10-15T08:38:35.603Z,13.25
2022-10-15T08:41:06.376Z,13.26
2022-10-15T08:43:40.148Z,13.16
2022-10-15T08:46:12.494Z,13.05
2022-10-15T08:48:49.949Z,13.00
2022-10-15T08:51:46.940Z,12.91
2022-10-15T08:54:16.704Z,12.63
2022-10-15T08:57:02.882Z,12.94
2022-10-15T09:00:04.985Z,13.00
2022-10-15T09:02:44.247Z,13.09
2022-10-15T09:05:29.311Z,13.19
2022-10-15T09:08:07.641Z,12.92
2022-10-15T09:10:43.659Z,12.86
2022-10-15T09:13:18.982Z,13.32
2022-10-15T09:15:53.902Z,13.29
2022-10-15T09:18:24.075Z,13.35
2022-10-15T09:20:51.135Z,13.08
2022-10-15T09:23:22.552Z,13.37
2022-10-15T09:25:57.396Z,13.25
2022-10-15T09:28:36.658Z,13.25
2022-10-15T09:31:04.712Z,13.39
2022-10-15T09:33:42.638Z,13.44
2022-10-15T09:36:27.456Z,13.49
2022-10-15T09:39:32.109Z,13.53
2022-10-15T09:42:24.369Z,13.56
2022-10-15T09:44:52.775Z,13.57
2022-10-15T09:47:27.512Z,13.58
2022-10-15T09:49:53.971Z,13.35
2022-10-15T09:52:23.265Z,13.37
2022-10-15T09:55:08.109Z,13.77
2022-10-15T09:57:38.416Z,13.76
2022-10-15T10:00:12.573Z,13.78
2022-10-15T10:02:39.826Z,13.78
2022-10-15T10:05:39.607Z,13.85
2022-10-15T10:08:22.905Z,13.90
2022-10-15T10:10:58.094Z,13.90
2022-10-15T10:13:28.276Z,13.98
2022-10-15T10:15:59.477Z,13.96
2022-10-15T10:18:26.170Z,14.04
2022-10-15T10:20:58.421Z,14.05
2022-10-15T10:23:33.763Z,14.07
2022-10-15T10:26:05.701Z,14.05
2022-10-15T10:28:44.163Z,14.06
2022-10-15T10:31:12.057Z,14.15
2022-10-15T10:33:41.740Z,14.23
2022-10-15T10:36:24.121Z,14.29
2022-10-15T10:39:21.071Z,14.32
2022-10-15T10:42:22.823Z,14.36
2022-10-15T10:44:49.538Z,14.32
2022-10-15T10:47:26.541Z,14.42
2022-10-15T10:49:55.161Z,14.29
2022-10-15T10:52:36.818Z,14.58
2022-10-15T10:55:06.595Z,14.63
2022-10-15T10:57:41.788Z,14.71
2022-10-15T11:00:15.301Z,14.82
2022-10-15T11:02:42.059Z,14.82
2022-10-15T11:05:09.709Z,14.99
2022-10-15T11:08:05.392Z,15.02
2022-10-15T11:10:39.834Z,15.11
2022-10-15T11:13:51.512Z,15.18
2022-10-15T11:16:30.462Z,15.27
2022-10-15T11:19:19.791Z,15.31
2022-10-15T11:22:21.676Z,15.30
2022-10-15T11:25:07.019Z,15.41
2022-10-15T11:27:52.587Z,15.40
2022-10-15T11:30:34.012Z,15.29
2022-10-15T11:33:35.995Z,15.46
2022-10-15T11:36:05.264Z,15.40
2022-10-15T11:38:39.849Z,15.56
2022-10-15T11:41:20.529Z,15.64
2022-10-15T11:44:25.303Z,15.93
2022-10-15T11:47:03.269Z,16.00
2022-10-15T11:49:43.767Z,15.79
2022-10-15T11:52:52.964Z,16.09
2022-10-15T11:55:31.267Z,15.99
2022-10-15T11:58:02.772Z,15.89
2022-10-15T12:00:37.369Z,15.73
2022-10-15T12:03:28.017Z,15.65
2022-10-15T12:06:03.500Z,16.10
2022-10-15T12:08:34.585Z,16.16
2022-10-15T12:11:20.167Z,15.94
2022-10-15T12:14:05.106Z,15.89
2022-10-15T12:17:23.936Z,15.97
2022-10-15T12:20:00.554Z,15.91
2022-10-15T12:22:41.588Z,16.00
2022-10-15T12:25:33.599Z,16.22
2022-10-15T12:28:09.439Z,16.20
2022-10-15T12:30:42.740Z,16.41
2022-10-15T12:33:24.305Z,16.02
2022-10-15T12:35:59.538Z,16.39
2022-10-15T12:38:39.197Z,16.27
2022-10-15T12:41:07.540Z,16.18
2022-10-15T12:43:38.236Z,14.64
2022-10-15T12:46:07.549Z,14.88
2022-10-15T12:48:41.120Z,15.01
2022-10-15T12:51:16.823Z,15.01
2022-10-15T12:53:47.843Z,14.72
2022-10-15T12:56:17.249Z,15.21
2022-10-15T12:58:48.575Z,15.18
2022-10-15T13:01:15.083Z,15.30
2022-10-15T13:03:56.046Z,15.35
2022-10-15T13:06:25.546Z,15.27
2022-10-15T13:09:10.902Z,15.67
2022-10-15T13:11:53.118Z,15.62
2022-10-15T13:14:39.753Z,15.61
2022-10-15T13:17:18.793Z,16.12
2022-10-15T13:20:05.613Z,16.51
2022-10-15T13:22:34.087Z,16.79
2022-10-15T13:25:01.098Z,17.29
2022-10-15T13:27:36.330Z,17.99
2022-10-15T13:30:14.785Z,17.65
2022-10-15T13:32:57.108Z,17.41
2022-10-15T13:35:27.823Z,18.11
2022-10-15T13:37:56.542Z,18.25
2022-10-15T13:40:28.494Z,17.01
2022-10-15T13:43:02.223Z,17.70
2022-10-15T13:45:29.537Z,18.01
2022-10-15T13:47:56.571Z,18.34
2022-10-15T13:50:27.142Z,17.44
2022-10-15T13:53:12.099Z,17.49
2022-10-15T13:55:43.906Z,17.27
2022-10-15T13:58:24.876Z,17.43
2022-10-15T14:01:14.545Z,17.46
2022-10-15T14:03:57.710Z,16.72
2022-10-15T14:06:28.523Z,16.61
2022-10-15T14:08:58.261Z,16.96
2022-10-15T14:11:25.541Z,16.67
2022-10-15T14:13:54.827Z,16.64
2022-10-15T14:16:28.083Z,16.51
2022-10-15T14:19:07.863Z,16.26
2022-10-15T14:21:42.091Z,16.53
2022-10-15T14:24:11.681Z,16.50
2022-10-15T14:26:38.526Z,16.56
2022-10-15T14:29:06.484Z,16.57
2022-10-15T14:31:35.818Z,16.46
2022-10-15T14:34:02.591Z,16.34
2022-10-15T14:36:31.868Z,16.32
2022-10-15T14:39:30.118Z,16.45
2022-10-15T14:42:17.423Z,16.25
2022-10-15T14:44:48.512Z,16.41
2022-10-15T14:47:20.326Z,16.58
2022-10-15T14:49:47.445Z,16.32
2022-10-15T14:52:16.633Z,16.57
2022-10-15T14:54:48.861Z,16.65
2022-10-15T14:57:41.484Z,16.25
2022-10-15T15:00:20.740Z,16.44
2022-10-15T15:02:47.917Z,16.38
2022-10-15T15:05:14.416Z,16.23
2022-10-15T15:07:41.403Z,16.38
2022-10-15T15:10:09.503Z,16.34
2022-10-15T15:12:39.052Z,16.35
2022-10-15T15:15:17.057Z,16.45
2022-10-15T15:17:43.795Z,16.42
2022-10-15T15:20:11.326Z,16.42
2022-10-15T15:22:39.855Z,16.45
2022-10-15T15:25:17.527Z,16.26
2022-10-15T15:27:44.251Z,16.02
2022-10-15T15:30:19.725Z,16.13
2022-10-15T15:32:47.131Z,15.96
2022-10-15T15:35:22.521Z,16.06
2022-10-15T15:37:49.127Z,16.06
2022-10-15T15:40:15.638Z,15.89
2022-10-15T15:42:42.508Z,15.92
2022-10-15T15:45:22.137Z,15.97
2022-10-15T15:47:48.942Z,15.56
2022-10-15T15:50:16.453Z,15.78
2022-10-15T15:52:43.641Z,15.68
2022-10-15T15:55:11.476Z,15.61
2022-10-15T15:57:38.113Z,15.58
2022-10-15T16:00:09.373Z,15.79
2022-10-15T16:02:36.422Z,15.66
2022-10-15T16:05:03.043Z,15.51
2022-10-15T16:07:29.896Z,15.26
2022-10-15T16:09:56.539Z,15.38
2022-10-15T16:12:23.536Z,15.01
2022-10-15T16:14:50.120Z,15.12
2022-10-15T16:17:16.573Z,15.07
2022-10-15T16:19:43.010Z,14.98
2022-10-15T16:22:10.053Z,14.88
2022-10-15T16:24:36.470Z,14.77
2022-10-15T16:27:02.883Z,14.63
2022-10-15T16:29:29.300Z,14.50
2022-10-15T16:31:55.852Z,14.52
2022-10-15T16:34:22.390Z,14.35
2022-10-15T16:36:48.895Z,14.49
2022-10-15T16:39:15.337Z,14.04
2022-10-15T16:41:41.794Z,14.20
2022-10-15T16:44:08.357Z,13.70
2022-10-15T16:46:35.062Z,13.96
2022-10-15T16:49:01.507Z,13.89
2022-10-15T16:51:28.411Z,13.85
2022-10-15T16:53:55.307Z,13.81
2022-10-15T16:56:27.262Z,14.20
2022-10-15T16:58:54.313Z,14.15
2022-10-15T17:01:24.005Z,14.27
2022-10-15T17:03:51.175Z,14.14
2022-10-15T17:06:24.140Z,14.09
2022-10-15T17:08:53.174Z,14.00
2022-10-15T17:11:25.644Z,13.94
2022-10-15T17:13:55.053Z,14.04
2022-10-15T17:16:27.944Z,14.10
2022-10-15T17:18:55.706Z,13.90
2022-10-15T17:21:25.215Z,13.97
2022-10-15T17:23:53.727Z,14.09
2022-10-15T17:26:23.145Z,13.98
2022-10-15T17:28:50.718Z,13.83
2022-10-15T17:31:20.100Z,13.78
2022-10-15T17:33:47.030Z,13.73
2022-10-15T17:36:19.432Z,13.92
2022-10-15T17:38:46.468Z,13.96
2022-10-15T17:41:18.625Z,13.72
2022-10-15T17:43:45.577Z,14.01
2022-10-15T17:46:14.675Z,13.91
2022-10-15T17:48:41.568Z,13.98
2022-10-15T17:51:10.992Z,13.70
2022-10-15T17:53:37.567Z,13.99
2022-10-15T17:56:32.006Z,13.95
2022-10-15T17:59:04.083Z,13.82
2022-10-15T18:01:56.826Z,13.63
2022-10-15T18:04:20.353Z,13.62
2022-10-15T18:06:46.770Z,13.76
2022-10-15T18:09:13.251Z,13.70
2022-10-15T18:11:40.463Z,13.77
2022-10-15T18:14:07.022Z,13.81
2022-10-15T18:16:33.489Z,13.90
2022-10-15T18:18:59.913Z,13.93
2022-10-15T18:21:26.623Z,14.02
2022-10-15T18:23:52.999Z,13.93
2022-10-15T18:26:21.411Z,13.97
2022-10-15T18:28:52.665Z,13.97
2022-10-15T18:31:20.269Z,13.86
2022-10-15T18:33:49.680Z,14.09
2022-10-15T18:36:21.915Z,14.09
2022-10-15T18:38:48.434Z,13.92
2022-10-15T18:41:20.751Z,13.89
2022-10-15T18:43:55.187Z,13.66
2022-10-15T18:46:22.038Z,13.74
2022-10-15T18:48:49.046Z,13.64
2022-10-15T18:51:15.613Z,13.68
2022-10-15T18:53:42.106Z,13.66
2022-10-15T18:56:10.196Z,13.73
2022-10-15T18:58:36.755Z,13.62
2022-10-15T19:01:33.604Z,13.44
2022-10-15T19:04:12.302Z,13.65
2022-10-15T19:06:44.539Z,13.71
2022-10-15T19:09:13.991Z,13.85
2022-10-15T19:11:42.330Z,13.74
2022-10-15T19:14:09.680Z,13.74
2022-10-15T19:16:36.393Z,13.71
2022-10-15T19:19:05.067Z,13.82
2022-10-15T19:21:31.996Z,13.95
2022-10-15T19:23:58.950Z,13.86
2022-10-15T19:26:25.757Z,13.91
2022-10-15T19:28:52.265Z,13.83
2022-10-15T19:31:42.400Z,13.64
2022-10-15T19:34:10.131Z,13.84
2022-10-15T19:36:43.854Z,13.84
2022-10-15T19:39:17.703Z,13.57
2022-10-15T19:41:44.995Z,13.62
2022-10-15T19:44:13.508Z,13.76
2022-10-15T19:46:41.162Z,13.74
2022-10-15T19:49:10.656Z,13.81
2022-10-15T19:51:37.641Z,13.74
2022-10-15T19:54:04.255Z,13.75
2022-10-15T19:56:30.772Z,13.51
2022-10-15T19:58:59.006Z,13.51
2022-10-15T20:01:26.976Z,13.63
2022-10-15T20:03:53.811Z,13.60
2022-10-15T20:06:21.174Z,13.63
2022-10-15T20:08:47.612Z,13.52
2022-10-15T20:11:14.114Z,13.62
2022-10-15T20:13:40.719Z,13.58
2022-10-15T20:16:12.693Z,13.57
2022-10-15T20:18:39.133Z,13.45
2022-10-15T20:21:11.168Z,13.54
2022-10-15T20:23:39.061Z,13.50
2022-10-15T20:26:07.121Z,13.51
2022-10-15T20:28:38.769Z,13.52
2022-10-15T20:31:23.482Z,13.38
2022-10-15T20:33:50.102Z,13.34
2022-10-15T20:36:22.688Z,13.38
2022-10-15T20:38:50.624Z,13.22
2022-10-15T20:41:18.082Z,13.25
2022-10-15T20:43:45.853Z,13.16
2022-10-15T20:46:16.351Z,12.90
2022-10-15T20:48:44.961Z,12.89
2022-10-15T20:51:14.553Z,12.86
2022-10-15T20:53:41.622Z,12.91
2022-10-15T20:56:08.373Z,12.94
2022-10-15T20:58:34.904Z,12.92
2022-10-15T21:01:01.431Z,12.68
2022-10-15T21:03:28.089Z,12.73
2022-10-15T21:05:54.491Z,12.92
2022-10-15T21:08:21.018Z,12.77
2022-10-15T21:10:47.398Z,12.72
2022-10-15T21:13:13.986Z,12.95
2022-10-15T21:15:40.421Z,12.67
2022-10-15T21:18:06.921Z,12.79
2022-10-15T21:20:33.316Z,12.80
2022-10-15T21:22:59.805Z,12.77
2022-10-15T21:25:26.275Z,12.64
2022-10-15T21:27:52.768Z,12.62
2022-10-15T21:30:19.247Z,12.58
2022-10-15T21:32:45.754Z,12.63
2022-10-15T21:35:12.720Z,12.81
2022-10-15T21:37:39.224Z,12.75
2022-10-15T21:40:06.358Z,12.61
2022-10-15T21:42:33.202Z,12.63
2022-10-15T21:44:59.676Z,12.69
2022-10-15T21:47:26.462Z,12.72
2022-10-15T21:49:53.136Z,12.65
2022-10-15T21:52:19.583Z,12.58
2022-10-15T21:54:45.998Z,12.51
2022-10-15T21:57:12.699Z,12.51
2022-10-15T21:59:39.197Z,12.38
2022-10-15T22:02:05.935Z,12.34
2022-10-15T22:04:35.460Z,12.35
2022-10-15T22:07:02.250Z,12.20
2022-10-15T22:09:28.886Z,12.32
2022-10-15T22:11:55.389Z,12.08
2022-10-15T22:14:21.937Z,12.24
2022-10-15T22:16:48.473Z,12.14
2022-10-15T22:19:16.195Z,11.96
2022-10-15T22:21:43.084Z,12.06
2022-10-15T22:24:16.018Z,12.09
2022-10-15T22:26:48.803Z,11.94
2022-10-15T22:29:19.208Z,12.02
2022-10-15T22:31:45.667Z,11.98
2022-10-15T22:34:12.542Z,12.04
2022-10-15T22:36:39.017Z,11.75
2022-10-15T22:39:07.285Z,11.91
2022-10-15T22:41:36.651Z,11.90
2022-10-15T22:44:03.511Z,11.89
2022-10-15T22:46:33.645Z,11.85
2022-10-15T22:49:00.073Z,11.70
2022-10-15T22:51:26.625Z,11.88
2022-10-15T22:53:57.467Z,11.83
2022-10-15T22:56:25.389Z,11.70
2022-10-15T22:58:52.132Z,11.73
2022-10-15T23:01:21.095Z,11.74
2022-10-15T23:03:50.241Z,11.84
2022-10-15T23:06:17.914Z,11.60
2022-10-15T23:08:45.081Z,11.80
2022-10-15T23:11:15.990Z,11.79
2022-10-15T23:13:43.897Z,11.78
2022-10-15T23:16:19.073Z,11.80
2022-10-15T23:18:46.791Z,11.79
2022-10-15T23:21:16.414Z,11.70
2022-10-15T23:23:44.223Z,11.61
2022-10-15T23:26:16.408Z,11.80
2022-10-15T23:28:44.455Z,11.63
2022-10-15T23:31:36.546Z,11.75
2022-10-15T23:34:04.394Z,11.84
2022-10-15T23:36:31.607Z,11.84
2022-10-15T23:39:00.498Z,11.84
2022-10-15T23:41:28.559Z,11.72
2022-10-15T23:43:55.622Z,11.69
2022-10-15T23:46:22.198Z,11.83
2022-10-15T23:48:48.908Z,11.93
2022-10-15T23:51:28.006Z,11.82
2022-10-15T23:53:57.762Z,11.79
2022-10-15T23:56:25.436Z,12.00
2022-10-15T23:58:56.028Z,12.04
